sensor_id;sensor_type;location;lat;lon;timestamp;P1;durP1;ratioP1;P2;durP2;ratioP2
54959;SDS011;40860;51.710;8.736;2022-10-26T00:02:22;5.97;;;1.67;;
54959;SDS011;40860;51.710;8.736;2022-10-26T00:06:26;3.55;;;1.60;;
54959;SDS011;40860;51.710;8.736;2022-10-26T00:10:30;7.70;;;1.80;;
54959;SDS011;40860;51.710;8.736;2022-10-26T00:14:34;7.82;;;1.70;;
54959;SDS011;40860;51.710;8.736;2022-10-26T00:18:39;2.92;;;1.67;;
54959;SDS011;40860;51.710;8.736;2022-10-26T00:22:42;3.40;;;1.83;;
54959;SDS011;40860;51.710;8.736;2022-10-26T00:26:45;3.78;;;2.10;;
54959;SDS011;40860;51.710;8.736;2022-10-26T00:30:48;3.28;;;2.17;;
54959;SDS011;40860;51.710;8.736;2022-10-26T00:34:53;4.30;;;2.40;;
54959;SDS011;40860;51.710;8.736;2022-10-26T00:38:56;5.55;;;2.47;;
54959;SDS011;40860;51.710;8.736;2022-10-26T00:42:59;5.43;;;2.45;;
54959;SDS011;40860;51.710;8.736;2022-10-26T00:47:03;6.57;;;2.75;;
54959;SDS011;40860;51.710;8.736;2022-10-26T00:51:09;7.65;;;2.85;;
54959;SDS011;40860;51.710;8.736;2022-10-26T00:55:14;6.18;;;3.08;;
54959;SDS011;40860;51.710;8.736;2022-10-26T00:59:21;6.30;;;3.40;;
54959;SDS011;40860;51.710;8.736;2022-10-26T01:03:25;6.90;;;3.00;;
54959;SDS011;40860;51.710;8.736;2022-10-26T01:07:30;6.95;;;3.70;;
54959;SDS011;40860;51.710;8.736;2022-10-26T01:11:33;5.85;;;4.30;;
54959;SDS011;40860;51.710;8.736;2022-10-26T01:15:37;12.70;;;5.07;;
54959;SDS011;40860;51.710;8.736;2022-10-26T01:19:55;8.40;;;5.70;;
54959;SDS011;40860;51.710;8.736;2022-10-26T01:24:22;14.90;;;7.13;;
54959;SDS011;40860;51.710;8.736;2022-10-26T01:28:44;14.25;;;7.55;;
54959;SDS011;40860;51.710;8.736;2022-10-26T01:37:29;14.40;;;8.00;;
54959;SDS011;40860;51.710;8.736;2022-10-26T01:41:37;11.48;;;7.22;;
54959;SDS011;40860;51.710;8.736;2022-10-26T01:45:46;15.82;;;7.97;;
54959;SDS011;40860;51.710;8.736;2022-10-26T01:59:52;10.80;;;7.70;;
54959;SDS011;40860;51.710;8.736;2022-10-26T02:04:06;10.43;;;7.13;;
54959;SDS011;40860;51.710;8.736;2022-10-26T02:08:26;11.00;;;7.43;;
54959;SDS011;40860;51.710;8.736;2022-10-26T02:12:41;14.57;;;8.00;;
54959;SDS011;40860;51.710;8.736;2022-10-26T02:16:53;11.63;;;8.25;;
54959;SDS011;40860;51.710;8.736;2022-10-26T02:21:00;10.38;;;7.43;;
54959;SDS011;40860;51.710;8.736;2022-10-26T02:25:08;13.70;;;8.45;;
54959;SDS011;40860;51.710;8.736;2022-10-26T02:29:15;15.95;;;8.20;;
54959;SDS011;40860;51.710;8.736;2022-10-26T02:33:21;11.63;;;7.68;;
54959;SDS011;40860;51.710;8.736;2022-10-26T02:37:27;12.77;;;7.22;;
54959;SDS011;40860;51.710;8.736;2022-10-26T02:41:31;12.70;;;7.40;;
54959;SDS011;40860;51.710;8.736;2022-10-26T02:45:38;13.02;;;7.00;;
54959;SDS011;40860;51.710;8.736;2022-10-26T02:49:45;9.85;;;7.07;;
54959;SDS011;40860;51.710;8.736;2022-10-26T02:53:49;10.20;;;7.20;;
54959;SDS011;40860;51.710;8.736;2022-10-26T02:57:56;13.13;;;7.53;;
54959;SDS011;40860;51.710;8.736;2022-10-26T03:02:04;10.65;;;6.75;;
54959;SDS011;40860;51.710;8.736;2022-10-26T03:06:07;11.00;;;7.22;;
54959;SDS011;40860;51.710;8.736;2022-10-26T03:10:10;9.75;;;6.72;;
54959;SDS011;40860;51.710;8.736;2022-10-26T03:14:13;9.93;;;7.35;;
54959;SDS011;40860;51.710;8.736;2022-10-26T03:18:17;12.40;;;6.93;;
54959;SDS011;40860;51.710;8.736;2022-10-26T03:22:20;11.40;;;7.13;;
54959;SDS011;40860;51.710;8.736;2022-10-26T03:26:23;11.48;;;6.80;;
54959;SDS011;40860;51.710;8.736;2022-10-26T03:30:26;11.20;;;7.38;;
54959;SDS011;40860;51.710;8.736;2022-10-26T03:34:31;10.63;;;7.13;;
54959;SDS011;40860;51.710;8.736;2022-10-26T03:38:34;8.52;;;6.80;;
54959;SDS011;40860;51.710;8.736;2022-10-26T03:42:37;8.80;;;6.80;;
54959;SDS011;40860;51.710;8.736;2022-10-26T03:46:41;10.38;;;7.28;;
54959;SDS011;40860;51.710;8.736;2022-10-26T03:50:45;7.95;;;6.00;;
54959;SDS011;40860;51.710;8.736;2022-10-26T03:54:48;10.65;;;6.55;;
54959;SDS011;40860;51.710;8.736;2022-10-26T03:58:50;10.45;;;6.95;;
54959;SDS011;40860;51.710;8.736;2022-10-26T04:02:54;8.05;;;6.07;;
54959;SDS011;40860;51.710;8.736;2022-10-26T04:06:59;8.52;;;5.80;;
54959;SDS011;40860;51.710;8.736;2022-10-26T04:11:02;13.55;;;6.38;;
54959;SDS011;40860;51.710;8.736;2022-10-26T04:15:05;9.38;;;5.97;;
54959;SDS011;40860;51.710;8.736;2022-10-26T04:19:09;8.95;;;5.88;;
54959;SDS011;40860;51.710;8.736;2022-10-26T04:23:15;11.02;;;6.80;;
54959;SDS011;40860;51.710;8.736;2022-10-26T04:27:19;12.73;;;7.00;;
54959;SDS011;40860;51.710;8.736;2022-10-26T04:31:22;9.55;;;6.35;;
54959;SDS011;40860;51.710;8.736;2022-10-26T04:35:25;11.23;;;6.38;;
54959;SDS011;40860;51.710;8.736;2022-10-26T04:39:29;11.15;;;5.78;;
54959;SDS011;40860;51.710;8.736;2022-10-26T04:43:32;7.43;;;5.38;;
54959;SDS011;40860;51.710;8.736;2022-10-26T04:47:35;8.63;;;6.03;;
54959;SDS011;40860;51.710;8.736;2022-10-26T04:51:37;9.93;;;5.88;;
54959;SDS011;40860;51.710;8.736;2022-10-26T04:55:42;10.45;;;5.57;;
54959;SDS011;40860;51.710;8.736;2022-10-26T04:59:44;9.90;;;5.93;;
54959;SDS011;40860;51.710;8.736;2022-10-26T05:03:48;8.13;;;5.25;;
54959;SDS011;40860;51.710;8.736;2022-10-26T05:07:52;12.73;;;6.00;;
54959;SDS011;40860;51.710;8.736;2022-10-26T05:11:57;13.18;;;5.45;;
54959;SDS011;40860;51.710;8.736;2022-10-26T05:16:00;9.48;;;5.53;;
54959;SDS011;40860;51.710;8.736;2022-10-26T05:20:03;8.80;;;5.35;;
54959;SDS011;40860;51.710;8.736;2022-10-26T05:24:10;8.05;;;5.40;;
54959;SDS011;40860;51.710;8.736;2022-10-26T05:28:14;7.50;;;5.10;;
54959;SDS011;40860;51.710;8.736;2022-10-26T05:32:19;9.18;;;5.00;;
54959;SDS011;40860;51.710;8.736;2022-10-26T05:36:22;9.20;;;5.25;;
54959;SDS011;40860;51.710;8.736;2022-10-26T05:40:24;9.50;;;4.45;;
54959;SDS011;40860;51.710;8.736;2022-10-26T05:44:29;7.03;;;4.60;;
54959;SDS011;40860;51.710;8.736;2022-10-26T05:48:32;4.43;;;3.92;;
54959;SDS011;40860;51.710;8.736;2022-10-26T05:52:37;4.95;;;3.70;;
54959;SDS011;40860;51.710;8.736;2022-10-26T05:56:40;7.78;;;3.85;;
54959;SDS011;40860;51.710;8.736;2022-10-26T06:00:48;5.47;;;3.20;;
54959;SDS011;40860;51.710;8.736;2022-10-26T06:05:02;7.45;;;3.58;;
54959;SDS011;40860;51.710;8.736;2022-10-26T06:09:07;7.65;;;3.20;;
54959;SDS011;40860;51.710;8.736;2022-10-26T06:13:12;8.43;;;3.38;;
54959;SDS011;40860;51.710;8.736;2022-10-26T06:17:29;7.25;;;3.75;;
54959;SDS011;40860;51.710;8.736;2022-10-26T06:21:49;4.50;;;3.72;;
54959;SDS011;40860;51.710;8.736;2022-10-26T06:26:07;7.22;;;3.10;;
54959;SDS011;40860;51.710;8.736;2022-10-26T06:30:17;5.07;;;3.25;;
54959;SDS011;40860;51.710;8.736;2022-10-26T06:34:25;8.77;;;4.40;;
54959;SDS011;40860;51.710;8.736;2022-10-26T06:38:34;7.75;;;4.72;;
54959;SDS011;40860;51.710;8.736;2022-10-26T06:42:39;7.03;;;5.10;;
54959;SDS011;40860;51.710;8.736;2022-10-26T06:46:44;7.97;;;5.60;;
54959;SDS011;40860;51.710;8.736;2022-10-26T06:50:51;9.98;;;5.18;;
54959;SDS011;40860;51.710;8.736;2022-10-26T06:54:55;11.13;;;5.22;;
54959;SDS011;40860;51.710;8.736;2022-10-26T06:58:59;10.35;;;5.18;;
54959;SDS011;40860;51.710;8.736;2022-10-26T07:03:09;7.32;;;5.13;;
54959;SDS011;40860;51.710;8.736;2022-10-26T07:07:14;5.88;;;4.65;;
54959;SDS011;40860;51.710;8.736;2022-10-26T07:11:19;7.15;;;5.32;;
54959;SDS011;40860;51.710;8.736;2022-10-26T07:15:22;6.88;;;4.53;;
54959;SDS011;40860;51.710;8.736;2022-10-26T07:19:25;7.97;;;4.82;;
54959;SDS011;40860;51.710;8.736;2022-10-26T07:23:29;9.02;;;4.70;;
54959;SDS011;40860;51.710;8.736;2022-10-26T07:27:32;11.27;;;4.90;;
54959;SDS011;40860;51.710;8.736;2022-10-26T07:31:35;7.68;;;4.60;;
54959;SDS011;40860;51.710;8.736;2022-10-26T07:35:38;9.13;;;3.85;;
54959;SDS011;40860;51.710;8.736;2022-10-26T07:39:42;5.80;;;4.28;;
54959;SDS011;40860;51.710;8.736;2022-10-26T07:43:45;7.72;;;4.30;;
54959;SDS011;40860;51.710;8.736;2022-10-26T07:47:51;5.47;;;4.32;;
54959;SDS011;40860;51.710;8.736;2022-10-26T07:51:54;5.30;;;3.55;;
54959;SDS011;40860;51.710;8.736;2022-10-26T07:55:58;4.97;;;3.60;;
54959;SDS011;40860;51.710;8.736;2022-10-26T08:00:02;5.22;;;3.20;;
54959;SDS011;40860;51.710;8.736;2022-10-26T08:04:05;3.80;;;2.75;;
54959;SDS011;40860;51.710;8.736;2022-10-26T08:08:08;5.88;;;2.60;;
54959;SDS011;40860;51.710;8.736;2022-10-26T08:12:12;6.78;;;2.63;;
54959;SDS011;40860;51.710;8.736;2022-10-26T08:16:16;4.82;;;2.83;;
54959;SDS011;40860;51.710;8.736;2022-10-26T08:20:19;9.85;;;3.15;;
54959;SDS011;40860;51.710;8.736;2022-10-26T08:24:22;10.10;;;2.90;;
54959;SDS011;40860;51.710;8.736;2022-10-26T08:28:26;3.47;;;2.42;;
54959;SDS011;40860;51.710;8.736;2022-10-26T08:32:30;7.90;;;2.45;;
54959;SDS011;40860;51.710;8.736;2022-10-26T08:36:33;5.95;;;2.10;;
54959;SDS011;40860;51.710;8.736;2022-10-26T08:40:36;5.18;;;3.00;;
54959;SDS011;40860;51.710;8.736;2022-10-26T08:44:44;6.85;;;2.95;;
54959;SDS011;40860;51.710;8.736;2022-10-26T08:48:49;5.18;;;2.60;;
54959;SDS011;40860;51.710;8.736;2022-10-26T08:52:56;4.75;;;2.35;;
54959;SDS011;40860;51.710;8.736;2022-10-26T08:57:09;6.50;;;2.45;;
54959;SDS011;40860;51.710;8.736;2022-10-26T09:01:21;9.75;;;2.53;;
54959;SDS011;40860;51.710;8.736;2022-10-26T09:05:27;6.90;;;2.67;;
54959;SDS011;40860;51.710;8.736;2022-10-26T09:09:39;4.68;;;2.30;;
54959;SDS011;40860;51.710;8.736;2022-10-26T09:13:52;6.05;;;2.38;;
54959;SDS011;40860;51.710;8.736;2022-10-26T09:18:05;5.18;;;2.33;;
54959;SDS011;40860;51.710;8.736;2022-10-26T09:22:18;6.90;;;2.53;;
54959;SDS011;40860;51.710;8.736;2022-10-26T09:26:31;10.63;;;2.70;;
54959;SDS011;40860;51.710;8.736;2022-10-26T09:30:39;5.28;;;2.53;;
54959;SDS011;40860;51.710;8.736;2022-10-26T09:34:44;7.68;;;2.65;;
54959;SDS011;40860;51.710;8.736;2022-10-26T09:38:50;4.65;;;2.10;;
54959;SDS011;40860;51.710;8.736;2022-10-26T09:42:59;5.68;;;2.08;;
54959;SDS011;40860;51.710;8.736;2022-10-26T09:47:08;5.38;;;2.00;;
54959;SDS011;40860;51.710;8.736;2022-10-26T09:51:19;4.15;;;1.70;;
54959;SDS011;40860;51.710;8.736;2022-10-26T09:55:23;3.85;;;1.80;;
54959;SDS011;40860;51.710;8.736;2022-10-26T09:59:28;6.95;;;2.10;;
54959;SDS011;40860;51.710;8.736;2022-10-26T10:03:34;5.30;;;1.90;;
54959;SDS011;40860;51.710;8.736;2022-10-26T10:07:39;6.07;;;1.98;;
54959;SDS011;40860;51.710;8.736;2022-10-26T10:11:43;3.22;;;1.65;;
54959;SDS011;40860;51.710;8.736;2022-10-26T10:15:52;5.53;;;1.65;;
54959;SDS011;40860;51.710;8.736;2022-10-26T10:20:05;3.70;;;1.88;;
54959;SDS011;40860;51.710;8.736;2022-10-26T10:24:21;10.70;;;2.00;;
54959;SDS011;40860;51.710;8.736;2022-10-26T10:28:27;3.72;;;1.52;;
54959;SDS011;40860;51.710;8.736;2022-10-26T10:32:30;6.15;;;1.70;;
54959;SDS011;40860;51.710;8.736;2022-10-26T10:36:40;4.05;;;1.98;;
54959;SDS011;40860;51.710;8.736;2022-10-26T10:40:49;4.05;;;1.67;;
54959;SDS011;40860;51.710;8.736;2022-10-26T10:44:54;2.97;;;1.80;;
54959;SDS011;40860;51.710;8.736;2022-10-26T10:49:02;2.70;;;1.42;;
54959;SDS011;40860;51.710;8.736;2022-10-26T10:53:11;3.28;;;1.40;;
54959;SDS011;40860;51.710;8.736;2022-10-26T10:57:18;4.07;;;1.70;;
54959;SDS011;40860;51.710;8.736;2022-10-26T11:01:27;6.15;;;1.75;;
54959;SDS011;40860;51.710;8.736;2022-10-26T11:05:38;4.75;;;1.90;;
54959;SDS011;40860;51.710;8.736;2022-10-26T11:09:50;3.17;;;1.60;;
54959;SDS011;40860;51.710;8.736;2022-10-26T11:13:58;4.47;;;1.95;;
54959;SDS011;40860;51.710;8.736;2022-10-26T11:18:07;6.70;;;2.17;;
54959;SDS011;40860;51.710;8.736;2022-10-26T11:22:16;5.28;;;1.90;;
54959;SDS011;40860;51.710;8.736;2022-10-26T11:26:23;7.05;;;2.40;;
54959;SDS011;40860;51.710;8.736;2022-10-26T11:30:33;6.38;;;2.00;;
54959;SDS011;40860;51.710;8.736;2022-10-26T11:34:44;5.13;;;2.15;;
54959;SDS011;40860;51.710;8.736;2022-10-26T11:38:56;6.03;;;2.28;;
54959;SDS011;40860;51.710;8.736;2022-10-26T11:43:09;2.70;;;1.67;;
54959;SDS011;40860;51.710;8.736;2022-10-26T11:47:18;7.25;;;1.90;;
54959;SDS011;40860;51.710;8.736;2022-10-26T11:51:32;5.82;;;1.83;;
54959;SDS011;40860;51.710;8.736;2022-10-26T11:55:40;5.82;;;2.05;;
54959;SDS011;40860;51.710;8.736;2022-10-26T11:59:44;7.68;;;1.70;;
54959;SDS011;40860;51.710;8.736;2022-10-26T12:03:52;3.88;;;1.95;;
54959;SDS011;40860;51.710;8.736;2022-10-26T12:07:58;3.88;;;1.70;;
54959;SDS011;40860;51.710;8.736;2022-10-26T12:12:06;3.80;;;1.77;;
54959;SDS011;40860;51.710;8.736;2022-10-26T12:16:16;5.82;;;2.10;;
54959;SDS011;40860;51.710;8.736;2022-10-26T12:20:46;5.72;;;1.70;;
54959;SDS011;40860;51.710;8.736;2022-10-26T12:25:03;5.75;;;1.83;;
54959;SDS011;40860;51.710;8.736;2022-10-26T12:29:24;6.78;;;2.08;;
54959;SDS011;40860;51.710;8.736;2022-10-26T12:33:47;5.13;;;2.20;;
54959;SDS011;40860;51.710;8.736;2022-10-26T12:37:52;4.50;;;1.95;;
54959;SDS011;40860;51.710;8.736;2022-10-26T12:41:55;5.85;;;1.90;;
54959;SDS011;40860;51.710;8.736;2022-10-26T12:50:42;3.22;;;1.80;;
54959;SDS011;40860;51.710;8.736;2022-10-26T12:54:48;6.05;;;2.00;;
54959;SDS011;40860;51.710;8.736;2022-10-26T12:59:19;3.13;;;1.80;;
54959;SDS011;40860;51.710;8.736;2022-10-26T13:03:29;6.18;;;1.95;;
54959;SDS011;40860;51.710;8.736;2022-10-26T13:07:36;8.23;;;2.50;;
54959;SDS011;40860;51.710;8.736;2022-10-26T13:11:44;6.68;;;2.30;;
54959;SDS011;40860;51.710;8.736;2022-10-26T13:15:51;5.38;;;2.28;;
54959;SDS011;40860;51.710;8.736;2022-10-26T13:19:56;7.93;;;2.22;;
54959;SDS011;40860;51.710;8.736;2022-10-26T13:24:00;7.80;;;2.00;;
54959;SDS011;40860;51.710;8.736;2022-10-26T13:32:34;6.35;;;2.08;;
54959;SDS011;40860;51.710;8.736;2022-10-26T13:36:39;6.00;;;2.13;;
54959;SDS011;40860;51.710;8.736;2022-10-26T13:40:46;4.25;;;1.73;;
54959;SDS011;40860;51.710;8.736;2022-10-26T13:44:52;6.45;;;2.25;;
54959;SDS011;40860;51.710;8.736;2022-10-26T13:49:02;5.63;;;2.30;;
54959;SDS011;40860;51.710;8.736;2022-10-26T13:53:11;6.30;;;2.22;;
54959;SDS011;40860;51.710;8.736;2022-10-26T13:57:20;8.05;;;2.55;;
54959;SDS011;40860;51.710;8.736;2022-10-26T14:01:30;6.28;;;2.05;;
54959;SDS011;40860;51.710;8.736;2022-10-26T14:05:34;5.25;;;2.10;;
54959;SDS011;40860;51.710;8.736;2022-10-26T14:09:41;11.10;;;2.58;;
54959;SDS011;40860;51.710;8.736;2022-10-26T14:13:45;7.28;;;2.33;;
54959;SDS011;40860;51.710;8.736;2022-10-26T14:17:51;5.32;;;2.03;;
54959;SDS011;40860;51.710;8.736;2022-10-26T14:21:56;8.13;;;1.95;;
54959;SDS011;40860;51.710;8.736;2022-10-26T14:26:00;5.22;;;1.88;;
54959;SDS011;40860;51.710;8.736;2022-10-26T14:34:29;7.45;;;1.73;;
54959;SDS011;40860;51.710;8.736;2022-10-26T14:38:35;4.90;;;1.90;;
54959;SDS011;40860;51.710;8.736;2022-10-26T14:42:44;6.57;;;1.77;;
54959;SDS011;40860;51.710;8.736;2022-10-26T14:46:51;9.70;;;2.13;;
54959;SDS011;40860;51.710;8.736;2022-10-26T14:51:00;4.97;;;1.75;;
54959;SDS011;40860;51.710;8.736;2022-10-26T14:55:10;7.20;;;2.40;;
54959;SDS011;40860;51.710;8.736;2022-10-26T14:59:18;10.25;;;2.45;;
54959;SDS011;40860;51.710;8.736;2022-10-26T15:03:23;11.02;;;2.25;;
54959;SDS011;40860;51.710;8.736;2022-10-26T15:07:35;5.00;;;1.92;;
54959;SDS011;40860;51.710;8.736;2022-10-26T15:11:41;4.70;;;2.05;;
54959;SDS011;40860;51.710;8.736;2022-10-26T15:15:44;5.38;;;1.98;;
54959;SDS011;40860;51.710;8.736;2022-10-26T15:19:51;5.00;;;2.30;;
54959;SDS011;40860;51.710;8.736;2022-10-26T15:23:56;7.10;;;2.63;;
54959;SDS011;40860;51.710;8.736;2022-10-26T15:28:09;6.15;;;2.25;;
54959;SDS011;40860;51.710;8.736;2022-10-26T15:32:26;6.75;;;2.42;;
54959;SDS011;40860;51.710;8.736;2022-10-26T15:36:30;6.38;;;2.10;;
54959;SDS011;40860;51.710;8.736;2022-10-26T15:40:37;4.05;;;1.85;;
54959;SDS011;40860;51.710;8.736;2022-10-26T15:44:43;8.38;;;2.30;;
54959;SDS011;40860;51.710;8.736;2022-10-26T15:48:46;5.88;;;2.53;;
54959;SDS011;40860;51.710;8.736;2022-10-26T15:52:57;4.00;;;2.30;;
54959;SDS011;40860;51.710;8.736;2022-10-26T15:57:03;7.45;;;2.05;;
54959;SDS011;40860;51.710;8.736;2022-10-26T16:01:11;8.13;;;1.98;;
54959;SDS011;40860;51.710;8.736;2022-10-26T16:05:17;3.63;;;1.95;;
54959;SDS011;40860;51.710;8.736;2022-10-26T16:09:19;4.47;;;1.83;;
54959;SDS011;40860;51.710;8.736;2022-10-26T16:13:24;4.63;;;1.92;;
54959;SDS011;40860;51.710;8.736;2022-10-26T16:17:27;6.15;;;2.10;;
54959;SDS011;40860;51.710;8.736;2022-10-26T16:21:30;4.88;;;2.17;;
54959;SDS011;40860;51.710;8.736;2022-10-26T16:25:34;7.40;;;2.38;;
54959;SDS011;40860;51.710;8.736;2022-10-26T16:29:44;2.72;;;1.63;;
54959;SDS011;40860;51.710;8.736;2022-10-26T16:33:47;4.70;;;2.90;;
54959;SDS011;40860;51.710;8.736;2022-10-26T16:37:50;9.13;;;4.20;;
54959;SDS011;40860;51.710;8.736;2022-10-26T16:41:52;4.88;;;2.10;;
54959;SDS011;40860;51.710;8.736;2022-10-26T16:45:57;4.53;;;2.40;;
54959;SDS011;40860;51.710;8.736;2022-10-26T16:50:00;5.18;;;2.08;;
54959;SDS011;40860;51.710;8.736;2022-10-26T16:54:03;7.97;;;2.15;;
54959;SDS011;40860;51.710;8.736;2022-10-26T16:58:06;5.30;;;2.53;;
54959;SDS011;40860;51.710;8.736;2022-10-26T17:02:12;5.72;;;2.85;;
54959;SDS011;40860;51.710;8.736;2022-10-26T17:06:15;3.70;;;2.83;;
54959;SDS011;40860;51.710;8.736;2022-10-26T17:10:19;7.03;;;2.42;;
54959;SDS011;40860;51.710;8.736;2022-10-26T17:14:21;6.18;;;3.20;;
54959;SDS011;40860;51.710;8.736;2022-10-26T17:18:26;6.13;;;2.70;;
54959;SDS011;40860;51.710;8.736;2022-10-26T17:22:41;9.07;;;2.40;;
54959;SDS011;40860;51.710;8.736;2022-10-26T17:26:44;11.88;;;5.93;;
54959;SDS011;40860;51.710;8.736;2022-10-26T17:30:47;7.82;;;3.30;;
54959;SDS011;40860;51.710;8.736;2022-10-26T17:34:51;5.32;;;2.50;;
54959;SDS011;40860;51.710;8.736;2022-10-26T17:38:54;6.88;;;2.28;;
54959;SDS011;40860;51.710;8.736;2022-10-26T17:47:42;4.30;;;1.90;;
54959;SDS011;40860;51.710;8.736;2022-10-26T17:51:47;5.28;;;2.17;;
54959;SDS011;40860;51.710;8.736;2022-10-26T17:55:55;6.97;;;2.20;;
54959;SDS011;40860;51.710;8.736;2022-10-26T18:00:01;8.88;;;2.75;;
54959;SDS011;40860;51.710;8.736;2022-10-26T18:04:12;3.05;;;2.33;;
54959;SDS011;40860;51.710;8.736;2022-10-26T18:08:17;5.88;;;2.33;;
54959;SDS011;40860;51.710;8.736;2022-10-26T18:12:20;5.10;;;2.10;;
54959;SDS011;40860;51.710;8.736;2022-10-26T18:16:24;3.95;;;2.17;;
54959;SDS011;40860;51.710;8.736;2022-10-26T18:20:28;5.72;;;2.40;;
54959;SDS011;40860;51.710;8.736;2022-10-26T18:24:32;5.68;;;2.50;;
54959;SDS011;40860;51.710;8.736;2022-10-26T18:28:35;6.57;;;2.35;;
54959;SDS011;40860;51.710;8.736;2022-10-26T18:32:38;10.60;;;2.42;;
54959;SDS011;40860;51.710;8.736;2022-10-26T18:36:46;6.15;;;2.47;;
54959;SDS011;40860;51.710;8.736;2022-10-26T18:40:51;4.75;;;1.90;;
54959;SDS011;40860;51.710;8.736;2022-10-26T18:44:55;5.47;;;2.63;;
54959;SDS011;40860;51.710;8.736;2022-10-26T18:49:01;8.90;;;2.45;;
54959;SDS011;40860;51.710;8.736;2022-10-26T18:53:06;9.75;;;3.85;;
54959;SDS011;40860;51.710;8.736;2022-10-26T18:57:14;6.60;;;3.28;;
54959;SDS011;40860;51.710;8.736;2022-10-26T19:01:19;6.50;;;2.90;;
54959;SDS011;40860;51.710;8.736;2022-10-26T19:05:26;3.95;;;2.30;;
54959;SDS011;40860;51.710;8.736;2022-10-26T19:09:29;3.28;;;1.98;;
54959;SDS011;40860;51.710;8.736;2022-10-26T19:13:33;9.13;;;2.38;;
54959;SDS011;40860;51.710;8.736;2022-10-26T19:17:37;7.97;;;2.20;;
54959;SDS011;40860;51.710;8.736;2022-10-26T19:21:40;6.10;;;2.00;;
54959;SDS011;40860;51.710;8.736;2022-10-26T19:25:44;6.50;;;2.38;;
54959;SDS011;40860;51.710;8.736;2022-10-26T19:29:48;5.32;;;2.40;;
54959;SDS011;40860;51.710;8.736;2022-10-26T19:33:57;6.15;;;2.13;;
54959;SDS011;40860;51.710;8.736;2022-10-26T19:38:01;6.60;;;2.80;;
54959;SDS011;40860;51.710;8.736;2022-10-26T19:42:05;7.28;;;3.20;;
54959;SDS011;40860;51.710;8.736;2022-10-26T19:46:09;3.38;;;2.30;;
54959;SDS011;40860;51.710;8.736;2022-10-26T19:50:14;3.88;;;2.42;;
54959;SDS011;40860;51.710;8.736;2022-10-26T19:54:20;5.10;;;2.30;;
54959;SDS011;40860;51.710;8.736;2022-10-26T19:58:23;4.70;;;2.15;;
54959;SDS011;40860;51.710;8.736;2022-10-26T20:02:28;4.28;;;2.13;;
54959;SDS011;40860;51.710;8.736;2022-10-26T20:06:31;3.80;;;2.05;;
54959;SDS011;40860;51.710;8.736;2022-10-26T20:10:38;4.60;;;2.15;;
54959;SDS011;40860;51.710;8.736;2022-10-26T20:14:45;4.35;;;1.90;;
54959;SDS011;40860;51.710;8.736;2022-10-26T20:18:49;4.32;;;2.00;;
54959;SDS011;40860;51.710;8.736;2022-10-26T20:22:52;4.20;;;2.30;;
54959;SDS011;40860;51.710;8.736;2022-10-26T20:26:56;3.65;;;2.80;;
54959;SDS011;40860;51.710;8.736;2022-10-26T20:30:59;6.28;;;2.45;;
54959;SDS011;40860;51.710;8.736;2022-10-26T20:35:09;6.07;;;2.70;;
54959;SDS011;40860;51.710;8.736;2022-10-26T20:39:12;6.43;;;2.97;;
54959;SDS011;40860;51.710;8.736;2022-10-26T20:43:16;9.63;;;4.22;;
54959;SDS011;40860;51.710;8.736;2022-10-26T20:47:19;7.72;;;3.90;;
54959;SDS011;40860;51.710;8.736;2022-10-26T20:51:28;4.70;;;3.10;;
54959;SDS011;40860;51.710;8.736;2022-10-26T20:55:52;5.65;;;2.22;;
54959;SDS011;40860;51.710;8.736;2022-10-26T20:59:58;4.35;;;2.20;;
54959;SDS011;40860;51.710;8.736;2022-10-26T21:04:04;3.80;;;2.03;;
54959;SDS011;40860;51.710;8.736;2022-10-26T21:08:09;6.15;;;1.95;;
54959;SDS011;40860;51.710;8.736;2022-10-26T21:12:12;3.63;;;2.20;;
54959;SDS011;40860;51.710;8.736;2022-10-26T21:16:15;5.38;;;1.92;;
54959;SDS011;40860;51.710;8.736;2022-10-26T21:20:18;5.22;;;2.03;;
54959;SDS011;40860;51.710;8.736;2022-10-26T21:24:23;3.67;;;2.03;;
54959;SDS011;40860;51.710;8.736;2022-10-26T21:28:31;6.97;;;2.22;;
54959;SDS011;40860;51.710;8.736;2022-10-26T21:32:34;7.60;;;2.08;;
54959;SDS011;40860;51.710;8.736;2022-10-26T21:36:37;7.53;;;3.15;;
54959;SDS011;40860;51.710;8.736;2022-10-26T21:40:41;6.30;;;2.20;;
54959;SDS011;40860;51.710;8.736;2022-10-26T21:44:44;5.15;;;2.35;;
54959;SDS011;40860;51.710;8.736;2022-10-26T21:48:47;4.28;;;1.98;;
54959;SDS011;40860;51.710;8.736;2022-10-26T21:52:51;2.92;;;1.75;;
54959;SDS011;40860;51.710;8.736;2022-10-26T21:56:56;5.78;;;2.00;;
54959;SDS011;40860;51.710;8.736;2022-10-26T22:01:03;8.48;;;2.83;;
54959;SDS011;40860;51.710;8.736;2022-10-26T22:05:07;7.43;;;3.10;;
54959;SDS011;40860;51.710;8.736;2022-10-26T22:09:10;4.00;;;2.58;;
54959;SDS011;40860;51.710;8.736;2022-10-26T22:13:14;10.20;;;3.00;;
54959;SDS011;40860;51.710;8.736;2022-10-26T22:17:17;6.38;;;2.83;;
54959;SDS011;40860;51.710;8.736;2022-10-26T22:21:21;4.63;;;2.85;;
54959;SDS011;40860;51.710;8.736;2022-10-26T22:25:26;5.60;;;2.70;;
54959;SDS011;40860;51.710;8.736;2022-10-26T22:29:30;6.57;;;3.00;;
54959;SDS011;40860;51.710;8.736;2022-10-26T22:33:33;5.28;;;2.97;;
54959;SDS011;40860;51.710;8.736;2022-10-26T22:37:36;8.52;;;3.05;;
54959;SDS011;40860;51.710;8.736;2022-10-26T22:41:39;6.47;;;2.97;;
54959;SDS011;40860;51.710;8.736;2022-10-26T22:45:43;4.53;;;2.55;;
54959;SDS011;40860;51.710;8.736;2022-10-26T22:49:46;4.68;;;2.65;;
54959;SDS011;40860;51.710;8.736;2022-10-26T22:53:50;8.60;;;3.50;;
54959;SDS011;40860;51.710;8.736;2022-10-26T22:57:53;4.47;;;2.70;;
54959;SDS011;40860;51.710;8.736;2022-10-26T23:01:58;6.32;;;2.60;;
54959;SDS011;40860;51.710;8.736;2022-10-26T23:06:01;5.47;;;2.85;;
54959;SDS011;40860;51.710;8.736;2022-10-26T23:10:04;6.63;;;2.88;;
54959;SDS011;40860;51.710;8.736;2022-10-26T23:14:10;3.45;;;2.22;;
54959;SDS011;40860;51.710;8.736;2022-10-26T23:18:14;5.30;;;2.30;;
54959;SDS011;40860;51.710;8.736;2022-10-26T23:22:17;7.82;;;2.50;;
54959;SDS011;40860;51.710;8.736;2022-10-26T23:26:20;4.95;;;2.70;;
54959;SDS011;40860;51.710;8.736;2022-10-26T23:30:23;4.18;;;2.55;;
54959;SDS011;40860;51.710;8.736;2022-10-26T23:34:36;4.20;;;2.70;;
54959;SDS011;40860;51.710;8.736;2022-10-26T23:38:39;3.17;;;2.88;;
54959;SDS011;40860;51.710;8.736;2022-10-26T23:42:42;4.03;;;2.58;;
54959;SDS011;40860;51.710;8.736;2022-10-26T23:46:46;3.92;;;2.45;;
54959;SDS011;40860;51.710;8.736;2022-10-26T23:50:50;5.82;;;3.05;;
54959;SDS011;40860;51.710;8.736;2022-10-26T23:54:53;7.45;;;3.08;;
54959;SDS011;40860;51.710;8.736;2022-10-26T23:58:56;4.43;;;2.80;;
